Time;durP1;ratioP1;P1;durP2;ratioP2;P2;SDS_P1;SDS_P2;PMS_P1;PMS_P2;Temp;Humidity;BMP_temperature;BMP_pressure;BME280_temperature;BME280_humidity;BME280_pressure;Samples;Min_cycle;Max_cycle;Signal;HPM_P1;HPM_P2
2020/12/11 00:02:06;;;;;;;108.25;29.10;;;-0.10;99.90;;;;;;4984255;28;20030;-70
2020/12/11 00:04:32;;;;;;;109.07;30.35;;;-0.10;99.90;;;;;;4966409;28;20105;-69
2020/12/11 00:06:58;;;;;;;109.63;29.77;;;0.00;99.90;;;;;;4983677;28;20031;-70
2020/12/11 00:09:25;;;;;;;97.60;28.90;;;-0.10;99.90;;;;;;4984249;28;20056;-69
2020/12/11 00:11:51;;;;;;;107.43;29.77;;;-0.10;99.90;;;;;;4984255;28;20026;-69
2020/12/11 00:14:17;;;;;;;108.75;29.90;;;-0.30;99.90;;;;;;4967479;28;20089;-70
2020/12/11 00:16:43;;;;;;;103.88;29.40;;;-0.30;99.90;;;;;;4984393;28;20045;-70
2020/12/11 00:19:08;;;;;;;103.40;28.20;;;-0.30;99.90;;;;;;4985122;28;20042;-71
2020/12/11 00:21:39;;;;;;;94.75;27.60;;;-0.20;99.90;;;;;;4986406;28;20030;-70
2020/12/11 00:24:05;;;;;;;85.50;26.10;;;-0.10;99.90;;;;;;4985755;28;20494;-69
2020/12/11 00:26:31;;;;;;;104.07;27.33;;;-0.10;99.90;;;;;;4968214;28;20035;-70
2020/12/11 00:28:56;;;;;;;94.47;27.20;;;-0.10;99.90;;;;;;4985284;28;20038;-69
2020/12/11 00:31:26;;;;;;;104.68;28.45;;;-0.10;99.90;;;;;;4977988;28;20046;-70
2020/12/11 00:33:52;;;;;;;101.38;27.67;;;-0.10;99.90;;;;;;4984756;28;20037;-70
2020/12/11 00:36:18;;;;;;;98.18;28.13;;;-0.10;99.90;;;;;;4984014;28;20507;-70
2020/12/11 00:38:44;;;;;;;88.35;26.40;;;-0.10;99.90;;;;;;4983978;28;20065;-69
2020/12/11 00:41:10;;;;;;;92.38;26.65;;;-0.10;99.90;;;;;;4983177;28;20042;-70
2020/12/11 00:43:36;;;;;;;92.75;26.90;;;-0.10;99.90;;;;;;4950302;28;20045;-69
2020/12/11 00:46:02;;;;;;;87.97;24.45;;;-0.10;99.90;;;;;;4965980;28;20053;-69
2020/12/11 00:48:28;;;;;;;81.20;25.33;;;-0.10;99.90;;;;;;4982891;28;20034;-70
2020/12/11 00:50:54;;;;;;;87.75;23.02;;;-0.10;99.90;;;;;;4983402;28;20030;-69
2020/12/11 00:53:21;;;;;;;81.15;24.98;;;-0.20;99.90;;;;;;4962550;28;20498;-70
2020/12/11 00:55:46;;;;;;;78.97;25.15;;;-0.10;99.90;;;;;;4983716;28;20085;-70
2020/12/11 00:58:12;;;;;;;85.28;24.20;;;-0.20;99.90;;;;;;4966282;28;20037;-70
2020/12/11 01:00:38;;;;;;;83.57;24.92;;;-0.20;99.90;;;;;;4983757;28;20118;-69
2020/12/11 01:03:03;;;;;;;78.15;23.40;;;-0.20;99.90;;;;;;4984080;28;20117;-69
2020/12/11 01:05:30;;;;;;;89.22;25.92;;;-0.20;99.90;;;;;;4984204;28;20038;-70
2020/12/11 01:07:56;;;;;;;90.82;27.05;;;-0.20;99.90;;;;;;4984666;28;20574;-70
2020/12/11 01:10:21;;;;;;;90.78;26.13;;;-0.10;99.90;;;;;;4983627;28;20031;-69
2020/12/11 01:12:48;;;;;;;85.57;25.52;;;-0.10;99.90;;;;;;4983686;28;20389;-69
2020/12/11 01:15:13;;;;;;;96.97;26.98;;;-0.10;99.90;;;;;;4984314;28;20038;-70
2020/12/11 01:17:39;;;;;;;102.38;29.08;;;-0.20;99.90;;;;;;4965922;28;20714;-69
2020/12/11 01:20:05;;;;;;;92.18;27.88;;;-0.20;99.90;;;;;;4983227;28;20038;-70
2020/12/11 01:22:32;;;;;;;104.88;29.10;;;-0.20;99.90;;;;;;4983680;28;20026;-69
2020/12/11 01:25:01;;;;;;;93.65;27.20;;;-0.20;99.90;;;;;;4964981;28;20038;-69
2020/12/11 01:27:27;;;;;;;93.60;28.42;;;-0.20;99.90;;;;;;4966017;28;20049;-69
2020/12/11 01:29:52;;;;;;;97.45;27.48;;;-0.20;99.90;;;;;;4965141;28;20030;-69
2020/12/11 01:32:18;;;;;;;94.05;27.35;;;-0.10;99.90;;;;;;4983347;28;20035;-70
2020/12/11 01:34:44;;;;;;;94.63;27.55;;;-0.10;99.90;;;;;;4965069;28;20938;-69
2020/12/11 01:37:10;;;;;;;93.75;26.77;;;-0.10;99.90;;;;;;4983148;28;20042;-69
2020/12/11 01:39:35;;;;;;;99.53;28.45;;;-0.20;99.90;;;;;;4982881;28;20027;-69
2020/12/11 01:42:01;;;;;;;95.40;28.60;;;-0.20;99.90;;;;;;4982852;28;20030;-69
2020/12/11 01:44:27;;;;;;;95.90;26.65;;;-0.20;99.90;;;;;;4983248;28;20491;-69
2020/12/11 01:46:57;;;;;;;95.05;28.40;;;-0.20;99.90;;;;;;4982761;28;20085;-69
2020/12/11 01:49:23;;;;;;;82.20;26.27;;;-0.20;99.90;;;;;;4964707;28;20092;-69
2020/12/11 01:51:50;;;;;;;94.72;25.92;;;-0.10;99.90;;;;;;4983023;28;20485;-69
2020/12/11 01:54:17;;;;;;;98.90;28.08;;;-0.10;99.90;;;;;;4964848;28;20037;-69
2020/12/11 01:57:00;;;;;;;90.18;27.33;;;-0.10;99.90;;;;;;4982904;28;20114;-69
2020/12/11 01:59:40;;;;;;;101.18;27.08;;;-0.20;99.90;;;;;;4982303;28;20042;-69
2020/12/11 02:02:08;;;;;;;95.82;27.17;;;-0.20;99.90;;;;;;4982796;28;20173;-69
2020/12/11 02:04:35;;;;;;;86.75;26.60;;;-0.20;99.90;;;;;;4982436;28;20034;-69
2020/12/11 02:07:05;;;;;;;94.57;27.23;;;-0.30;99.90;;;;;;4983108;28;20108;-69
2020/12/11 02:09:32;;;;;;;87.45;26.02;;;-0.30;99.90;;;;;;4982214;28;20026;-69
2020/12/11 02:11:59;;;;;;;94.60;27.85;;;-0.30;99.90;;;;;;4982252;28;20039;-69
2020/12/11 02:14:25;;;;;;;88.10;28.50;;;-0.30;99.90;;;;;;4982745;28;20084;-69
2020/12/11 02:16:56;;;;;;;95.40;26.88;;;-0.30;99.90;;;;;;4982287;28;20043;-69
2020/12/11 02:19:22;;;;;;;95.47;26.02;;;-0.30;99.90;;;;;;4964903;28;20038;-69
2020/12/11 02:21:47;;;;;;;80.90;25.23;;;-0.30;99.90;;;;;;4982530;28;20057;-69
2020/12/11 02:24:17;;;;;;;100.45;27.92;;;-0.30;99.90;;;;;;4981665;28;20081;-70
2020/12/11 02:26:43;;;;;;;89.22;27.58;;;-0.30;99.90;;;;;;4968766;28;20038;-69
2020/12/11 02:29:09;;;;;;;82.68;26.02;;;-0.30;99.90;;;;;;4985988;28;20101;-70
2020/12/11 02:31:34;;;;;;;86.28;26.10;;;-0.30;99.90;;;;;;4986071;28;20117;-70
2020/12/11 02:34:00;;;;;;;83.88;26.27;;;-0.30;99.90;;;;;;4986329;28;20030;-69
2020/12/11 02:36:26;;;;;;;82.88;25.42;;;-0.30;99.90;;;;;;4986642;28;20034;-69
2020/12/11 02:38:51;;;;;;;79.28;25.70;;;-0.30;99.90;;;;;;4986455;28;20042;-69
2020/12/11 02:41:17;;;;;;;94.35;26.35;;;-0.30;99.90;;;;;;4985572;28;20518;-69
2020/12/11 02:43:43;;;;;;;76.18;24.48;;;-0.30;99.90;;;;;;4969273;28;20040;-69
2020/12/11 02:46:08;;;;;;;82.72;24.50;;;-0.40;99.90;;;;;;4968589;28;20905;-69
2020/12/11 02:48:34;;;;;;;78.00;24.75;;;-0.20;99.90;;;;;;4982713;28;20050;-69
2020/12/11 02:51:00;;;;;;;75.47;24.48;;;-0.30;99.90;;;;;;4968219;28;20070;-69
2020/12/11 02:53:26;;;;;;;80.80;23.90;;;-0.30;99.90;;;;;;4985958;28;20022;-69
2020/12/11 02:55:52;;;;;;;87.80;25.77;;;-0.30;99.90;;;;;;4968139;28;20262;-69
2020/12/11 02:58:18;;;;;;;86.05;25.48;;;-0.40;99.90;;;;;;4985549;28;20045;-69
2020/12/11 03:00:43;;;;;;;81.72;24.17;;;-0.40;99.90;;;;;;4968034;28;20765;-69
2020/12/11 03:03:09;;;;;;;75.15;22.77;;;-0.40;99.90;;;;;;4985338;28;20058;-69
2020/12/11 03:05:35;;;;;;;74.63;23.42;;;-0.30;99.90;;;;;;4967631;28;20042;-69
2020/12/11 03:08:01;;;;;;;75.47;25.67;;;-0.20;99.90;;;;;;4985716;28;20029;-69
2020/12/11 03:10:26;;;;;;;82.68;23.95;;;-0.30;99.90;;;;;;4984246;28;20816;-69
2020/12/11 03:12:52;;;;;;;78.10;22.80;;;-0.40;99.90;;;;;;4985426;28;20534;-69
2020/12/11 03:15:18;;;;;;;84.30;24.33;;;-0.40;99.90;;;;;;4967767;28;20038;-70
2020/12/11 03:17:44;;;;;;;80.80;25.52;;;-0.40;99.90;;;;;;4984762;28;20109;-69
2020/12/11 03:20:10;;;;;;;88.28;24.50;;;-0.30;99.90;;;;;;4985113;28;20034;-69
2020/12/11 03:22:36;;;;;;;78.45;24.52;;;-0.30;99.90;;;;;;4984989;28;20031;-69
2020/12/11 03:25:03;;;;;;;79.50;24.75;;;-0.30;99.90;;;;;;4984560;28;20030;-70
2020/12/11 03:27:28;;;;;;;77.82;24.25;;;-0.30;99.90;;;;;;4985394;28;20084;-69
2020/12/11 03:29:54;;;;;;;75.95;25.17;;;-0.30;99.90;;;;;;4984613;28;20030;-69
2020/12/11 03:32:19;;;;;;;83.07;25.88;;;-0.30;99.90;;;;;;4984760;28;20030;-69
2020/12/11 03:34:45;;;;;;;85.72;26.38;;;-0.20;99.90;;;;;;4967250;28;20495;-69
2020/12/11 03:37:11;;;;;;;86.65;26.63;;;-0.20;99.90;;;;;;4984642;28;20038;-69
2020/12/11 03:39:37;;;;;;;79.20;25.80;;;-0.20;99.90;;;;;;4984256;28;20034;-69
2020/12/11 03:42:02;;;;;;;85.85;24.85;;;-0.20;99.90;;;;;;4967179;28;20054;-69
2020/12/11 03:44:29;;;;;;;83.88;23.88;;;-0.20;99.90;;;;;;4984630;28;20037;-69
2020/12/11 03:46:55;;;;;;;86.90;26.42;;;-0.20;99.90;;;;;;4984002;28;20072;-70
2020/12/11 03:49:23;;;;;;;85.28;24.92;;;-0.20;99.90;;;;;;4984341;28;20034;-69
2020/12/11 03:51:52;;;;;;;91.85;26.52;;;-0.30;99.90;;;;;;4966675;28;20042;-69
2020/12/11 03:54:19;;;;;;;93.50;27.67;;;-0.30;99.90;;;;;;4984091;28;20038;-69
2020/12/11 03:56:46;;;;;;;85.75;27.30;;;-0.30;99.90;;;;;;4984787;28;20037;-69
2020/12/11 03:59:12;;;;;;;88.65;24.55;;;-0.40;99.90;;;;;;4984055;28;20042;-69
2020/12/11 04:01:37;;;;;;;94.22;26.25;;;-0.40;99.90;;;;;;4984126;28;20101;-69
2020/12/11 04:04:03;;;;;;;87.15;26.55;;;-0.40;99.90;;;;;;4966546;28;20038;-69
2020/12/11 04:06:29;;;;;;;88.93;26.08;;;-0.40;99.90;;;;;;4984638;28;20026;-69
2020/12/11 04:08:54;;;;;;;80.13;24.38;;;-0.30;99.90;;;;;;4984209;28;20054;-69
2020/12/11 04:11:20;;;;;;;83.32;24.67;;;-0.30;99.90;;;;;;4983997;28;20084;-69
2020/12/11 04:13:45;;;;;;;81.40;25.77;;;-0.30;99.90;;;;;;4984474;28;20030;-69
2020/12/11 04:16:11;;;;;;;82.43;25.20;;;-0.30;99.90;;;;;;4983789;28;20069;-70
2020/12/11 04:18:37;;;;;;;82.85;25.48;;;-0.30;99.90;;;;;;4984456;28;20140;-70
2020/12/11 04:21:02;;;;;;;79.78;25.13;;;-0.30;99.90;;;;;;4966443;28;20041;-69
2020/12/11 04:23:29;;;;;;;92.13;24.67;;;-0.30;99.90;;;;;;4983444;28;20037;-69
2020/12/11 04:25:54;;;;;;;83.68;24.77;;;-0.40;99.90;;;;;;4984316;28;20410;-69
2020/12/11 04:28:21;;;;;;;84.82;25.50;;;-0.40;99.90;;;;;;4984215;28;20026;-70
2020/12/11 04:30:47;;;;;;;88.78;26.45;;;-0.40;99.90;;;;;;4966546;28;20042;-69
2020/12/11 04:33:16;;;;;;;76.93;23.58;;;-0.30;99.90;;;;;;4966831;28;20037;-69
2020/12/11 04:35:41;;;;;;;82.68;24.95;;;-0.40;99.90;;;;;;4985181;28;20045;-67
2020/12/11 04:38:07;;;;;;;88.18;24.20;;;-0.40;99.90;;;;;;4966342;28;20034;-68
2020/12/11 04:40:33;;;;;;;89.00;24.58;;;-0.40;99.90;;;;;;4985296;28;20414;-68
2020/12/11 04:42:59;;;;;;;82.85;25.02;;;-0.40;99.90;;;;;;4985655;28;20061;-68
2020/12/11 04:45:25;;;;;;;84.43;26.75;;;-0.40;99.90;;;;;;4985127;28;20413;-69
2020/12/11 04:47:51;;;;;;;90.97;25.75;;;-0.40;99.90;;;;;;4984864;28;20038;-67
2020/12/11 04:50:18;;;;;;;83.82;24.67;;;-0.40;99.90;;;;;;4985617;28;20026;-68
2020/12/11 04:52:46;;;;;;;82.38;25.85;;;-0.40;99.90;;;;;;4967235;28;20034;-67
2020/12/11 04:55:17;;;;;;;86.75;26.75;;;-0.40;99.90;;;;;;4983583;28;20034;-68
2020/12/11 04:57:51;;;;;;;82.32;25.83;;;-0.30;99.90;;;;;;4983978;28;20051;-69
2020/12/11 05:00:18;;;;;;;77.10;23.95;;;-0.30;99.90;;;;;;4981388;28;20030;-67
2020/12/11 05:02:45;;;;;;;82.32;26.33;;;-0.30;99.90;;;;;;4982956;28;20042;-67
2020/12/11 05:05:12;;;;;;;86.85;25.08;;;-0.30;99.90;;;;;;4982742;28;20034;-68
2020/12/11 05:07:38;;;;;;;83.25;24.80;;;-0.30;99.90;;;;;;4983701;28;20026;-67
2020/12/11 05:10:07;;;;;;;83.88;24.95;;;-0.30;99.90;;;;;;4975575;28;20030;-67
2020/12/11 05:12:33;;;;;;;76.50;23.90;;;-0.30;99.90;;;;;;4985006;28;20073;-67
2020/12/11 05:15:07;;;;;;;72.45;22.75;;;-0.30;99.90;;;;;;4984044;28;20042;-67
2020/12/11 05:17:35;;;;;;;76.35;23.70;;;-0.30;99.90;;;;;;4984275;28;20668;-67
2020/12/11 05:20:01;;;;;;;72.65;22.65;;;-0.40;99.90;;;;;;4984273;28;20118;-67
2020/12/11 05:22:32;;;;;;;81.65;23.45;;;-0.40;99.90;;;;;;4984398;28;20041;-67
2020/12/11 05:24:58;;;;;;;72.70;22.50;;;-0.40;99.90;;;;;;4983509;28;20494;-67
2020/12/11 05:27:25;;;;;;;73.20;21.98;;;-0.40;99.90;;;;;;4983486;28;20022;-67
2020/12/11 05:29:52;;;;;;;66.10;21.75;;;-0.40;99.90;;;;;;4983334;28;20794;-68
2020/12/11 05:32:43;;;;;;;73.72;22.83;;;-0.40;99.90;;;;;;4983019;28;20037;-69
2020/12/11 05:35:24;;;;;;;77.50;22.58;;;-0.40;99.90;;;;;;4983065;28;20041;-68
2020/12/11 05:38:07;;;;;;;71.30;23.10;;;-0.40;99.90;;;;;;4983261;28;20035;-68
2020/12/11 05:40:38;;;;;;;79.15;22.70;;;-0.30;99.90;;;;;;4967596;28;20034;-68
2020/12/11 05:43:14;;;;;;;63.75;22.38;;;-0.20;99.90;;;;;;4981489;28;20042;-68
2020/12/11 05:45:57;;;;;;;70.10;21.95;;;-0.20;99.90;;;;;;4963252;28;20093;-68
2020/12/11 05:48:24;;;;;;;75.57;22.30;;;-0.30;99.90;;;;;;4982565;28;20022;-68
2020/12/11 05:50:53;;;;;;;72.53;22.98;;;-0.20;99.90;;;;;;4983025;28;20034;-68
2020/12/11 05:53:20;;;;;;;66.70;21.70;;;-0.20;99.90;;;;;;4981485;28;20038;-68
2020/12/11 05:55:46;;;;;;;72.97;22.02;;;-0.30;99.90;;;;;;4980585;28;20065;-68
2020/12/11 05:58:12;;;;;;;63.42;21.73;;;-0.20;99.90;;;;;;4982596;28;20035;-68
2020/12/11 06:00:41;;;;;;;66.53;23.13;;;-0.30;99.90;;;;;;4982697;28;20030;-68
2020/12/11 06:03:08;;;;;;;66.97;22.48;;;-0.30;99.90;;;;;;4982237;28;20124;-68
2020/12/11 06:05:39;;;;;;;73.00;26.17;;;-0.30;99.90;;;;;;4982808;28;20038;-68
2020/12/11 06:08:11;;;;;;;64.18;20.95;;;-0.20;99.90;;;;;;4981110;28;20096;-68
2020/12/11 06:10:41;;;;;;;70.45;23.58;;;-0.30;99.90;;;;;;4970827;28;20038;-70
2020/12/11 06:13:07;;;;;;;66.82;21.63;;;-0.30;99.90;;;;;;4980698;28;20026;-67
2020/12/11 06:15:44;;;;;;;65.80;21.42;;;-0.30;99.90;;;;;;4982002;28;20103;-67
2020/12/11 06:18:20;;;;;;;63.90;20.67;;;-0.30;99.90;;;;;;4982193;28;20038;-68
2020/12/11 06:20:47;;;;;;;67.60;21.63;;;-0.30;99.90;;;;;;4982629;28;20590;-67
2020/12/11 06:23:30;;;;;;;68.93;20.80;;;-0.30;99.90;;;;;;4982619;28;20027;-67
2020/12/11 06:25:57;;;;;;;62.67;20.35;;;-0.30;99.90;;;;;;4981643;28;20092;-69
2020/12/11 06:28:38;;;;;;;63.17;21.67;;;-0.20;99.90;;;;;;4982843;28;20034;-70
2020/12/11 06:31:10;;;;;;;65.38;20.83;;;-0.20;99.90;;;;;;4981976;28;20030;-68
2020/12/11 06:33:38;;;;;;;63.47;19.23;;;-0.20;99.90;;;;;;4982972;28;20031;-68
2020/12/11 06:36:05;;;;;;;72.93;22.52;;;-0.20;99.90;;;;;;4982088;28;20038;-68
2020/12/11 06:38:41;;;;;;;67.05;21.58;;;-0.20;99.90;;;;;;4981782;28;20509;-70
2020/12/11 06:41:07;;;;;;;65.38;20.17;;;-0.30;99.90;;;;;;4982091;28;20842;-68
2020/12/11 06:43:44;;;;;;;61.10;19.50;;;-0.30;99.90;;;;;;4982294;28;20038;-68
2020/12/11 06:46:28;;;;;;;62.55;20.08;;;-0.30;99.90;;;;;;4981669;28;20034;-69
2020/12/11 06:49:17;;;;;;;63.55;21.05;;;-0.30;99.90;;;;;;4980858;28;20513;-68
2020/12/11 06:51:46;;;;;;;59.97;20.45;;;-0.40;99.90;;;;;;4977637;28;20026;-69
2020/12/11 06:54:21;;;;;;;66.13;20.02;;;-0.30;99.90;;;;;;4982053;28;20349;-68
2020/12/11 06:56:52;;;;;;;64.75;20.75;;;-0.30;99.90;;;;;;4965656;28;20027;-68
2020/12/11 06:59:23;;;;;;;60.42;20.27;;;-0.30;99.90;;;;;;4981996;28;20038;-68
2020/12/11 07:01:56;;;;;;;62.88;21.52;;;-0.30;99.90;;;;;;4982082;28;20030;-68
2020/12/11 07:04:23;;;;;;;64.72;20.92;;;-0.30;99.90;;;;;;4974346;28;20030;-68
2020/12/11 07:06:50;;;;;;;65.60;20.23;;;-0.40;99.90;;;;;;4981817;28;20216;-69
2020/12/11 07:09:17;;;;;;;58.10;19.38;;;-0.40;99.90;;;;;;4981548;28;20452;-68
2020/12/11 07:11:43;;;;;;;68.53;20.27;;;-0.40;99.90;;;;;;4983671;28;20101;-68
2020/12/11 07:14:10;;;;;;;68.72;21.10;;;-0.30;99.90;;;;;;4985686;28;20042;-68
2020/12/11 07:16:43;;;;;;;62.88;20.58;;;-0.30;99.90;;;;;;4967321;28;20045;-68
2020/12/11 07:19:09;;;;;;;66.63;22.25;;;-0.30;99.90;;;;;;4985422;28;20045;-70
2020/12/11 07:21:38;;;;;;;75.68;21.52;;;-0.30;99.90;;;;;;4985643;28;20831;-68
2020/12/11 07:24:04;;;;;;;61.65;20.25;;;-0.20;99.90;;;;;;4984778;28;20035;-68
2020/12/11 07:26:33;;;;;;;66.18;21.48;;;-0.10;99.90;;;;;;4972252;28;20416;-68
2020/12/11 07:29:04;;;;;;;68.18;21.10;;;-0.10;99.90;;;;;;5004223;28;20506;-68
2020/12/11 07:31:41;;;;;;;65.45;22.25;;;-0.10;99.90;;;;;;5002871;28;20045;-68
2020/12/11 07:34:14;;;;;;;67.72;21.80;;;-0.10;99.90;;;;;;5003103;28;20034;-68
2020/12/11 07:36:41;;;;;;;59.58;19.58;;;-0.10;99.90;;;;;;5003905;28;20030;-68
2020/12/11 07:39:14;;;;;;;63.35;20.30;;;-0.10;99.90;;;;;;5003493;28;20026;-68
2020/12/11 07:41:45;;;;;;;64.22;21.52;;;-0.20;99.90;;;;;;5004800;28;20101;-68
2020/12/11 07:44:20;;;;;;;65.25;21.55;;;-0.20;99.90;;;;;;5004670;28;20022;-68
2020/12/11 07:46:46;;;;;;;59.45;20.20;;;-0.10;99.90;;;;;;5003832;28;20033;-68
2020/12/11 07:49:12;;;;;;;63.53;20.25;;;-0.10;99.90;;;;;;5003852;28;20029;-68
2020/12/11 07:51:48;;;;;;;65.85;20.27;;;-0.10;99.90;;;;;;5004759;28;20061;-68
2020/12/11 07:54:14;;;;;;;55.05;18.48;;;-0.10;99.90;;;;;;5004181;28;20038;-70
2020/12/11 07:56:40;;;;;;;62.30;19.05;;;-0.20;99.90;;;;;;5004273;28;20041;-69
2020/12/11 07:59:13;;;;;;;64.00;19.65;;;-0.20;99.90;;;;;;5004254;28;20072;-68
2020/12/11 08:01:40;;;;;;;59.47;17.92;;;-0.20;99.90;;;;;;5004290;28;20038;-68
2020/12/11 08:04:06;;;;;;;54.75;19.27;;;-0.20;99.90;;;;;;5004914;28;20760;-69
2020/12/11 08:06:33;;;;;;;53.42;18.30;;;-0.10;99.90;;;;;;5004443;28;20129;-68
2020/12/11 08:09:10;;;;;;;57.80;19.38;;;-0.10;99.90;;;;;;5001726;28;20030;-68
2020/12/11 08:11:35;;;;;;;57.55;19.00;;;-0.10;99.90;;;;;;5004185;28;20125;-69
2020/12/11 08:14:03;;;;;;;59.65;19.75;;;-0.10;99.90;;;;;;5003837;28;20113;-68
2020/12/11 08:16:30;;;;;;;55.20;18.92;;;-0.10;99.90;;;;;;5003416;28;20046;-68
2020/12/11 08:18:57;;;;;;;58.03;18.88;;;0.00;99.90;;;;;;4985174;28;20037;-69
2020/12/11 08:21:33;;;;;;;54.38;19.45;;;0.00;99.90;;;;;;5004255;28;20033;-72
2020/12/11 08:23:59;;;;;;;55.08;17.98;;;0.10;99.90;;;;;;5001880;28;20049;-69
2020/12/11 08:26:35;;;;;;;60.58;18.73;;;0.10;99.90;;;;;;5003493;28;20046;-68
2020/12/11 08:29:06;;;;;;;57.50;18.88;;;0.10;99.90;;;;;;5002992;28;20034;-69
2020/12/11 08:31:41;;;;;;;57.53;18.42;;;0.10;99.90;;;;;;5002810;28;20393;-68
2020/12/11 08:34:15;;;;;;;52.63;17.77;;;0.10;99.90;;;;;;5003544;28;20084;-68
2020/12/11 08:36:43;;;;;;;55.50;17.67;;;0.10;99.90;;;;;;5002591;28;20041;-68
2020/12/11 08:39:10;;;;;;;60.40;19.00;;;0.10;99.90;;;;;;5002657;28;20030;-68
2020/12/11 08:41:41;;;;;;;48.35;17.73;;;0.20;99.90;;;;;;5003610;28;20037;-72
2020/12/11 08:44:25;;;;;;;58.38;18.42;;;0.30;99.90;;;;;;5003837;28;20044;-68
2020/12/11 08:47:08;;;;;;;52.67;16.83;;;0.30;99.90;;;;;;5003690;28;20061;-69
2020/12/11 08:49:41;;;;;;;53.67;17.77;;;0.30;99.90;;;;;;4979506;28;20406;-68
2020/12/11 08:52:09;;;;;;;51.45;17.75;;;0.20;99.90;;;;;;5003911;28;20054;-69
2020/12/11 08:54:34;;;;;;;53.53;17.13;;;0.30;99.90;;;;;;5001509;28;20045;-68
2020/12/11 08:57:00;;;;;;;52.60;17.10;;;0.30;99.90;;;;;;5005212;28;20034;-68
2020/12/11 08:59:26;;;;;;;66.13;20.08;;;0.20;99.90;;;;;;5004087;28;20037;-68
2020/12/11 09:01:51;;;;;;;54.10;18.75;;;0.30;99.90;;;;;;5005078;28;20065;-68
2020/12/11 09:04:17;;;;;;;57.17;19.15;;;0.20;99.90;;;;;;4987403;28;20144;-68
2020/12/11 09:06:46;;;;;;;54.20;18.75;;;0.30;99.90;;;;;;5004225;28;20041;-68
2020/12/11 09:09:11;;;;;;;54.63;17.98;;;0.40;99.90;;;;;;5004288;28;20033;-69
2020/12/11 09:11:37;;;;;;;63.03;19.08;;;0.30;99.90;;;;;;5003863;28;20033;-68
2020/12/11 09:14:03;;;;;;;55.25;18.58;;;0.40;99.90;;;;;;4985063;28;20480;-69
2020/12/11 09:16:28;;;;;;;67.45;19.58;;;0.40;99.90;;;;;;5002301;28;20041;-68
2020/12/11 09:18:54;;;;;;;58.20;18.40;;;0.40;99.90;;;;;;4984610;28;20038;-69
2020/12/11 09:21:23;;;;;;;61.90;20.55;;;0.40;99.90;;;;;;5001376;28;20041;-68
2020/12/11 09:23:49;;;;;;;57.45;18.52;;;0.40;99.90;;;;;;4994895;28;20041;-71
2020/12/11 09:26:15;;;;;;;60.47;18.33;;;0.50;99.90;;;;;;5002638;28;20033;-71
2020/12/11 09:28:47;;;;;;;56.70;20.17;;;0.50;99.90;;;;;;5002816;28;20028;-68
2020/12/11 09:31:13;;;;;;;68.00;20.77;;;0.50;99.90;;;;;;5002335;28;20034;-68
2020/12/11 09:33:41;;;;;;;73.15;22.15;;;0.50;99.90;;;;;;5002533;28;20080;-68
2020/12/11 09:36:07;;;;;;;59.17;20.02;;;0.50;99.90;;;;;;5003498;28;20034;-68
2020/12/11 09:38:32;;;;;;;61.28;19.52;;;0.70;99.90;;;;;;4984682;28;20420;-69
2020/12/11 09:41:01;;;;;;;72.50;21.33;;;0.40;99.90;;;;;;5000399;28;20034;-67
2020/12/11 09:51:08;;;;;;;61.70;20.50;;;0.70;99.90;;;;;;4999648;28;20030;-68
2020/12/11 09:56:06;;;;;;;69.75;22.55;;;0.70;99.90;;;;;;4999806;28;20049;-70
2020/12/11 09:58:34;;;;;;;68.13;22.90;;;0.60;99.90;;;;;;5000657;28;20034;-69
2020/12/11 10:01:01;;;;;;;70.72;21.42;;;0.70;99.90;;;;;;4999630;28;20041;-70
2020/12/11 10:03:32;;;;;;;89.90;23.08;;;0.70;99.90;;;;;;5000741;28;20033;-71
2020/12/11 10:05:58;;;;;;;75.35;23.02;;;0.60;99.90;;;;;;4999894;28;20494;-71
2020/12/11 10:08:23;;;;;;;64.63;20.73;;;0.70;99.90;;;;;;5000378;28;20167;-71
2020/12/11 10:10:49;;;;;;;62.92;20.20;;;0.70;99.90;;;;;;4999955;28;20022;-71
2020/12/11 10:13:14;;;;;;;61.85;21.27;;;0.70;99.90;;;;;;4999351;28;20030;-71
2020/12/11 10:15:40;;;;;;;65.88;22.70;;;0.70;99.90;;;;;;4993446;28;20042;-75
2020/12/11 10:18:06;;;;;;;63.25;22.63;;;0.80;99.90;;;;;;5000140;28;20474;-70
2020/12/11 10:20:32;;;;;;;63.17;22.95;;;0.80;99.90;;;;;;5000179;28;20453;-70
2020/12/11 10:22:58;;;;;;;73.38;23.23;;;0.90;99.90;;;;;;4999110;28;20029;-70
2020/12/11 10:25:24;;;;;;;59.90;21.83;;;0.90;99.90;;;;;;4990222;28;20069;-69
2020/12/11 10:27:50;;;;;;;61.40;21.63;;;1.00;99.90;;;;;;4998387;28;20050;-69
2020/12/11 10:30:15;;;;;;;59.13;22.13;;;1.10;99.90;;;;;;4979655;28;20542;-69
2020/12/11 10:32:41;;;;;;;63.42;21.77;;;1.10;99.90;;;;;;4999585;28;20050;-70
2020/12/11 10:35:08;;;;;;;56.05;21.58;;;1.20;99.90;;;;;;4983145;28;20041;-70
2020/12/11 10:37:35;;;;;;;62.70;21.67;;;1.10;99.90;;;;;;4999673;28;20030;-70
2020/12/11 10:40:03;;;;;;;63.13;23.38;;;1.00;99.90;;;;;;4999307;28;20030;-70
2020/12/11 10:42:29;;;;;;;63.17;22.38;;;1.10;99.90;;;;;;4999925;28;20046;-70
2020/12/11 10:44:55;;;;;;;61.88;22.83;;;1.20;99.90;;;;;;4999925;28;20037;-69
2020/12/11 10:47:21;;;;;;;64.78;23.17;;;1.20;99.90;;;;;;5002004;28;20027;-69
2020/12/11 10:49:48;;;;;;;68.82;23.92;;;1.10;99.90;;;;;;4986259;28;20030;-70
2020/12/11 10:52:14;;;;;;;67.45;24.38;;;1.00;99.90;;;;;;5002794;28;20497;-70
2020/12/11 10:54:40;;;;;;;66.28;22.83;;;1.00;99.90;;;;;;4985833;28;20034;-70
2020/12/11 10:57:06;;;;;;;69.30;23.48;;;1.00;99.90;;;;;;5003404;28;20030;-69
2020/12/11 10:59:31;;;;;;;69.45;22.48;;;0.90;99.90;;;;;;5002615;28;20209;-68
2020/12/11 11:01:57;;;;;;;67.75;23.30;;;0.90;99.90;;;;;;5003039;28;20624;-68
2020/12/11 11:04:23;;;;;;;65.53;23.77;;;0.90;99.90;;;;;;5002962;28;20447;-67
2020/12/11 11:06:57;;;;;;;60.42;22.02;;;1.00;99.90;;;;;;5003505;28;20026;-68
2020/12/11 11:12:17;;;;;;;65.63;23.58;;;1.00;99.90;;;;;;5003078;28;20469;-68
2020/12/11 11:28:01;;;;;;;64.20;23.27;;;1.20;99.90;;;;;;5004553;28;20057;-68
2020/12/11 11:30:28;;;;;;;60.65;22.58;;;1.20;99.90;;;;;;4999604;28;20034;-68
2020/12/11 11:32:54;;;;;;;60.92;22.75;;;1.30;99.90;;;;;;5000988;28;20041;-66
2020/12/11 11:35:21;;;;;;;58.92;21.98;;;1.30;99.90;;;;;;5000635;28;20029;-68
2020/12/11 11:37:47;;;;;;;63.72;22.30;;;1.30;99.90;;;;;;4986168;28;20596;-69
2020/12/11 11:40:14;;;;;;;68.85;22.35;;;1.30;99.90;;;;;;5002339;28;20819;-69
2020/12/11 11:42:40;;;;;;;65.28;22.73;;;1.20;99.90;;;;;;5003755;28;20441;-69
2020/12/11 11:45:08;;;;;;;68.65;23.05;;;1.30;99.90;;;;;;5000893;28;20118;-68
2020/12/11 11:47:37;;;;;;;60.75;21.95;;;1.40;99.90;;;;;;5002770;28;20033;-68
2020/12/11 11:52:37;;;;;;;70.55;21.92;;;1.40;99.90;;;;;;5003550;28;20030;-69
2020/12/11 11:55:05;;;;;;;60.65;21.88;;;1.50;99.90;;;;;;5002113;28;20113;-68
2020/12/11 11:57:31;;;;;;;65.07;22.88;;;1.50;99.90;;;;;;5002816;28;20065;-68
2020/12/11 11:59:56;;;;;;;67.22;22.42;;;1.40;99.90;;;;;;5002951;28;20889;-68
2020/12/11 12:02:22;;;;;;;69.80;23.20;;;1.30;99.90;;;;;;5003064;28;20095;-69
2020/12/11 12:04:48;;;;;;;63.88;22.30;;;1.20;99.90;;;;;;5002973;28;20030;-69
2020/12/11 12:07:13;;;;;;;64.32;23.33;;;1.30;99.90;;;;;;5002930;28;20570;-69
2020/12/11 12:09:39;;;;;;;65.68;23.20;;;1.30;99.90;;;;;;5002781;28;20084;-69
2020/12/11 12:12:05;;;;;;;66.15;23.73;;;1.20;99.90;;;;;;5000913;28;20034;-69
2020/12/11 12:14:31;;;;;;;65.10;22.10;;;1.20;99.90;;;;;;4985116;28;20924;-68
2020/12/11 12:16:58;;;;;;;60.22;22.08;;;1.20;99.90;;;;;;4984344;28;20151;-70
2020/12/11 12:19:33;;;;;;;63.65;22.23;;;1.10;99.90;;;;;;5002631;28;20034;-67
2020/12/11 12:27:36;;;;;;;66.53;22.63;;;1.40;99.90;;;;;;5000179;28;20104;-68
2020/12/11 12:30:02;;;;;;;62.42;22.30;;;1.50;99.90;;;;;;5002271;28;20123;-69
2020/12/11 12:32:33;;;;;;;61.42;22.33;;;1.40;99.90;;;;;;5002604;28;20045;-68
2020/12/11 12:35:01;;;;;;;70.28;23.17;;;1.50;99.90;;;;;;5001958;28;20042;-68
2020/12/11 12:37:36;;;;;;;62.40;22.75;;;1.50;99.90;;;;;;4983955;28;20140;-68
2020/12/11 12:43:14;;;;;;;60.17;22.23;;;1.50;99.90;;;;;;4998424;28;20824;-68
2020/12/11 12:45:40;;;;;;;63.40;21.88;;;1.50;99.90;;;;;;5000629;28;20045;-68
2020/12/11 12:48:05;;;;;;;69.18;24.45;;;1.50;99.90;;;;;;5001598;28;20037;-68
2020/12/11 12:50:31;;;;;;;65.30;21.27;;;1.60;99.90;;;;;;4984402;28;20041;-69
2020/12/11 12:52:57;;;;;;;62.97;23.25;;;1.70;99.90;;;;;;5002132;28;20180;-68
2020/12/11 12:55:38;;;;;;;66.72;23.67;;;1.70;99.90;;;;;;5000749;28;20044;-68
2020/12/11 12:58:04;;;;;;;63.22;21.92;;;1.70;99.90;;;;;;4986621;28;20049;-68
2020/12/11 13:00:46;;;;;;;69.80;23.55;;;1.80;99.90;;;;;;5003917;28;20029;-69
2020/12/11 13:03:57;;;;;;;71.90;23.08;;;1.80;99.90;;;;;;4995398;28;20057;-69
2020/12/11 13:05:58;;;;;;;71.07;23.83;;;1.80;99.90;;;;;;4982076;28;20058;-69
2020/12/11 13:08:24;;;;;;;66.78;23.23;;;1.80;99.90;;;;;;4964818;28;20034;-69
2020/12/11 13:10:49;;;;;;;67.20;23.63;;;1.80;99.90;;;;;;4983409;28;20037;-69
2020/12/11 13:13:15;;;;;;;71.72;24.92;;;1.80;99.90;;;;;;4966955;28;20133;-69